Time;durP1;ratioP1;P1;durP2;ratioP2;P2;SDS_P1;SDS_P2;PMS_P1;PMS_P2;Temp;Humidity;BMP_temperature;BMP_pressure;BME280_temperature;BME280_humidity;BME280_pressure;Samples;Min_cycle;Max_cycle;Signal;HPM_P1;HPM_P2
2022/05/07 00:02:01;;;;;;;18.73;10.93;;;;;;;;;;5030909;27;94977;-76
2022/05/07 00:04:27;;;;;;;15.30;10.35;;;;;;;;;;5029607;28;99018;-74
2022/05/07 00:06:54;;;;;;;20.00;10.73;;;;;;;;;;5030239;27;97448;-77
2022/05/07 00:09:20;;;;;;;13.90;10.48;;;;;;;;;;5030941;27;95235;-77
2022/05/07 00:11:47;;;;;;;13.88;9.88;;;;;;;;;;5031476;27;96883;-76
2022/05/07 00:14:13;;;;;;;13.43;10.20;;;;;;;;;;5028638;27;97310;-76
2022/05/07 00:19:24;;;;;;;15.07;10.25;;;;;;;;;;5039649;27;96860;-77
2022/05/07 00:21:51;;;;;;;13.18;10.63;;;;;;;;;;5051184;27;95655;-78
2022/05/07 00:24:18;;;;;;;13.25;10.60;;;;;;;;;;5053740;27;96695;-75
2022/05/07 00:26:44;;;;;;;16.00;10.57;;;;;;;;;;5034292;28;97425;-75
2022/05/07 00:29:11;;;;;;;14.57;11.00;;;;;;;;;;5034131;27;95188;-77
2022/05/07 00:31:37;;;;;;;16.67;11.43;;;;;;;;;;5034268;28;97115;-76
2022/05/07 00:34:05;;;;;;;14.07;11.98;;;;;;;;;;5032780;28;97296;-76
2022/05/07 00:36:32;;;;;;;15.05;11.63;;;;;;;;;;5033437;27;95427;-76
2022/05/07 00:38:58;;;;;;;16.67;10.43;;;;;;;;;;5034672;28;96819;-75
2022/05/07 00:41:25;;;;;;;13.23;10.73;;;;;;;;;;5037174;28;98851;-77
2022/05/07 00:43:52;;;;;;;13.65;10.48;;;;;;;;;;5033692;28;96958;-77
2022/05/07 00:46:22;;;;;;;14.02;10.80;;;;;;;;;;5033594;27;97323;-74
2022/05/07 00:48:48;;;;;;;15.73;11.20;;;;;;;;;;5034312;28;96338;-77
2022/05/07 00:51:33;;;;;;;16.98;11.23;;;;;;;;;;5032281;28;96580;-76
2022/05/07 00:54:00;;;;;;;12.45;10.50;;;;;;;;;;5033928;28;97532;-78
2022/05/07 00:56:27;;;;;;;17.05;11.30;;;;;;;;;;5033235;27;95365;-77
2022/05/07 00:58:54;;;;;;;15.52;12.13;;;;;;;;;;5034240;27;97116;-77
2022/05/07 01:01:20;;;;;;;23.08;12.55;;;;;;;;;;5031416;28;97439;-78
2022/05/07 01:03:47;;;;;;;22.65;13.63;;;;;;;;;;5036915;27;95389;-77
2022/05/07 01:06:14;;;;;;;14.52;12.30;;;;;;;;;;5033623;28;97337;-77
2022/05/07 01:08:40;;;;;;;19.63;13.93;;;;;;;;;;5034357;27;95547;-77
2022/05/07 01:11:07;;;;;;;18.60;14.43;;;;;;;;;;5031140;27;97204;-77
2022/05/07 01:13:34;;;;;;;19.50;14.15;;;;;;;;;;5033109;27;97428;-75
2022/05/07 01:16:00;;;;;;;18.08;13.18;;;;;;;;;;5031543;28;95102;-76
2022/05/07 01:18:30;;;;;;;20.88;13.65;;;;;;;;;;5033182;27;96766;-75
2022/05/07 01:20:57;;;;;;;21.83;13.90;;;;;;;;;;5032334;28;97296;-75
2022/05/07 01:23:24;;;;;;;20.75;14.90;;;;;;;;;;5032710;28;96135;-77
2022/05/07 01:25:50;;;;;;;22.15;14.77;;;;;;;;;;5036553;27;97103;-79
2022/05/07 01:28:17;;;;;;;18.48;15.45;;;;;;;;;;5034894;28;95258;-75
2022/05/07 01:30:43;;;;;;;20.80;16.08;;;;;;;;;;5031800;28;96869;-75
2022/05/07 01:33:09;;;;;;;22.02;15.48;;;;;;;;;;5032632;28;97323;-77
2022/05/07 01:35:35;;;;;;;24.88;16.17;;;;;;;;;;5033033;27;95344;-76
2022/05/07 01:38:02;;;;;;;20.48;15.50;;;;;;;;;;5033384;27;96919;-78
2022/05/07 01:40:31;;;;;;;20.45;15.48;;;;;;;;;;5031800;28;96786;-77
2022/05/07 01:42:58;;;;;;;23.90;15.45;;;;;;;;;;5032960;28;95385;-77
2022/05/07 01:45:24;;;;;;;23.77;15.57;;;;;;;;;;5032188;28;96769;-77
2022/05/07 01:50:40;;;;;;;25.23;16.63;;;;;;;;;;5029352;28;96650;-73
2022/05/07 01:53:07;;;;;;;23.58;15.15;;;;;;;;;;5032625;28;97884;-76
2022/05/07 01:55:34;;;;;;;28.95;15.95;;;;;;;;;;5033006;28;95366;-77
2022/05/07 01:58:00;;;;;;;27.15;16.90;;;;;;;;;;5033035;27;97172;-75
2022/05/07 02:00:29;;;;;;;32.35;17.60;;;;;;;;;;5031617;27;97729;-77
2022/05/07 02:02:56;;;;;;;28.00;17.83;;;;;;;;;;5032960;28;95373;-75
2022/05/07 02:05:22;;;;;;;29.63;18.40;;;;;;;;;;5032790;27;96725;-77
2022/05/07 02:07:49;;;;;;;34.90;18.73;;;;;;;;;;5035117;27;97286;-75
2022/05/07 02:10:15;;;;;;;45.05;20.83;;;;;;;;;;5031636;28;96866;-76
2022/05/07 02:12:41;;;;;;;35.63;20.45;;;;;;;;;;5032435;27;97093;-77
2022/05/07 02:15:08;;;;;;;34.60;21.35;;;;;;;;;;5031591;27;96277;-77
2022/05/07 02:17:35;;;;;;;34.67;21.25;;;;;;;;;;5032432;28;96842;-72
2022/05/07 02:20:05;;;;;;;34.75;21.00;;;;;;;;;;5030523;28;98116;-77
2022/05/07 02:22:31;;;;;;;35.15;20.98;;;;;;;;;;5031123;27;95317;-76
2022/05/07 02:24:58;;;;;;;35.70;20.45;;;;;;;;;;5032951;28;96815;-76
2022/05/07 02:27:25;;;;;;;33.03;20.13;;;;;;;;;;5031475;27;97135;-75
2022/05/07 02:29:51;;;;;;;34.00;20.30;;;;;;;;;;5034703;28;95385;-75
2022/05/07 02:32:18;;;;;;;37.42;19.50;;;;;;;;;;5031444;27;97648;-75
2022/05/07 02:34:44;;;;;;;37.28;20.27;;;;;;;;;;5032084;28;95062;-77
2022/05/07 02:37:11;;;;;;;37.67;21.02;;;;;;;;;;5029895;28;96566;-77
2022/05/07 02:39:37;;;;;;;36.40;20.25;;;;;;;;;;5032175;27;96154;-75
2022/05/07 02:44:49;;;;;;;30.05;19.65;;;;;;;;;;5032656;27;96769;-75
2022/05/07 02:47:16;;;;;;;38.35;19.27;;;;;;;;;;5028934;28;97360;-75
2022/05/07 02:49:42;;;;;;;34.42;19.35;;;;;;;;;;5031668;28;95296;-74
2022/05/07 02:52:08;;;;;;;28.80;17.63;;;;;;;;;;5034620;27;95795;-75
2022/05/07 02:54:35;;;;;;;29.15;18.60;;;;;;;;;;5032611;27;96474;-75
2022/05/07 02:57:01;;;;;;;28.17;18.30;;;;;;;;;;5031759;28;96874;-74
2022/05/07 02:59:27;;;;;;;27.73;18.58;;;;;;;;;;5030602;27;97031;-75
2022/05/07 03:01:54;;;;;;;29.63;18.25;;;;;;;;;;5032280;28;95128;-75
2022/05/07 03:04:20;;;;;;;26.42;18.98;;;;;;;;;;5030850;27;96770;-75
2022/05/07 03:06:46;;;;;;;29.25;18.23;;;;;;;;;;5031838;27;96358;-75
2022/05/07 03:09:13;;;;;;;32.40;18.27;;;;;;;;;;5029832;27;95417;-75
2022/05/07 03:11:39;;;;;;;28.55;18.17;;;;;;;;;;5045843;27;96142;-74
2022/05/07 03:14:06;;;;;;;26.40;18.08;;;;;;;;;;5038197;27;97321;-74
2022/05/07 03:16:35;;;;;;;31.98;18.48;;;;;;;;;;5032047;27;95591;-76
2022/05/07 03:19:02;;;;;;;32.42;17.88;;;;;;;;;;5028110;28;97986;-73
2022/05/07 03:21:29;;;;;;;32.10;18.27;;;;;;;;;;5027708;28;95590;-74
2022/05/07 03:23:55;;;;;;;25.27;17.85;;;;;;;;;;5031548;28;96820;-73
2022/05/07 03:26:22;;;;;;;24.98;17.98;;;;;;;;;;5031165;28;97778;-75
2022/05/07 03:28:48;;;;;;;30.25;16.85;;;;;;;;;;5031111;28;96430;-75
2022/05/07 03:31:15;;;;;;;28.05;16.80;;;;;;;;;;5031357;27;97284;-75
2022/05/07 03:33:42;;;;;;;25.85;16.80;;;;;;;;;;5031786;27;99305;-76
2022/05/07 03:36:09;;;;;;;28.95;16.08;;;;;;;;;;5035788;28;95377;-75
2022/05/07 03:38:35;;;;;;;29.33;17.13;;;;;;;;;;5030047;28;97173;-75
2022/05/07 03:41:03;;;;;;;27.98;16.70;;;;;;;;;;5031370;27;95304;-75
2022/05/07 03:43:29;;;;;;;29.05;16.42;;;;;;;;;;5031621;28;96796;-76
2022/05/07 03:45:55;;;;;;;24.88;17.00;;;;;;;;;;5031444;27;96586;-76
2022/05/07 03:48:22;;;;;;;27.45;16.60;;;;;;;;;;5029955;27;95455;-74
2022/05/07 03:50:48;;;;;;;24.95;16.23;;;;;;;;;;5031837;27;95688;-76
2022/05/07 03:53:30;;;;;;;26.27;16.10;;;;;;;;;;5029624;28;97617;-74
2022/05/07 03:56:00;;;;;;;27.53;15.63;;;;;;;;;;5030908;28;95205;-77
2022/05/07 03:58:26;;;;;;;29.13;16.55;;;;;;;;;;5036288;27;96854;-74
2022/05/07 04:00:56;;;;;;;23.55;16.35;;;;;;;;;;5034515;27;95625;-76
2022/05/07 04:03:23;;;;;;;30.95;16.85;;;;;;;;;;5035006;28;96895;-74
2022/05/07 04:05:50;;;;;;;26.60;16.10;;;;;;;;;;5031964;27;97415;-75
2022/05/07 04:08:16;;;;;;;24.92;16.05;;;;;;;;;;5034480;28;95165;-75
2022/05/07 04:10:43;;;;;;;26.38;15.48;;;;;;;;;;5035100;27;96971;-74
2022/05/07 04:13:10;;;;;;;29.27;15.82;;;;;;;;;;5034264;28;97277;-78
2022/05/07 04:15:37;;;;;;;26.80;15.48;;;;;;;;;;5033809;28;95238;-76
2022/05/07 04:18:04;;;;;;;24.60;15.43;;;;;;;;;;5035706;27;96734;-76
2022/05/07 04:20:31;;;;;;;24.35;15.20;;;;;;;;;;5034234;27;95373;-75
2022/05/07 04:22:57;;;;;;;26.08;15.80;;;;;;;;;;5034879;27;96983;-74
2022/05/07 04:25:24;;;;;;;20.30;15.00;;;;;;;;;;5032458;28;97321;-74
2022/05/07 04:27:51;;;;;;;24.35;15.45;;;;;;;;;;5034515;27;95284;-76
2022/05/07 04:30:17;;;;;;;22.73;14.20;;;;;;;;;;5033847;27;97051;-76
2022/05/07 04:32:43;;;;;;;22.90;14.02;;;;;;;;;;5034327;27;96304;-74
2022/05/07 04:35:10;;;;;;;34.60;14.70;;;;;;;;;;5033228;27;97310;-76
2022/05/07 04:37:36;;;;;;;24.10;14.15;;;;;;;;;;5034189;28;96835;-74
2022/05/07 04:40:02;;;;;;;23.73;14.32;;;;;;;;;;5037517;27;97866;-74
2022/05/07 04:42:29;;;;;;;22.42;13.35;;;;;;;;;;5032469;27;96876;-74
2022/05/07 19:37:21;;;;;;;13.10;4.30;;;;;;;;;;5071631;27;1307658;-75
2022/05/07 19:39:48;;;;;;;8.60;4.63;;;;;;;;;;5089687;27;97681;-78
2022/05/07 19:42:14;;;;;;;7.13;4.32;;;;;;;;;;5088329;27;95373;-72
2022/05/07 19:44:40;;;;;;;9.88;4.35;;;;;;;;;;5087571;27;97284;-73
2022/05/07 19:47:12;;;;;;;;;;;;;;;;;;5089870;27;97310;-74
2022/05/07 19:49:40;;;;;;;9.20;4.22;;;;;;;;;;5088886;27;117326;-73
2022/05/07 19:52:07;;;;;;;7.15;4.47;;;;;;;;;;5085782;27;96739;-73
2022/05/07 19:54:34;;;;;;;10.10;4.18;;;;;;;;;;5081127;27;100750;-73
2022/05/07 19:57:00;;;;;;;10.35;4.65;;;;;;;;;;5086181;27;96147;-73
2022/05/07 19:59:27;;;;;;;8.82;4.40;;;;;;;;;;5084070;27;97294;-73
2022/05/07 20:01:54;;;;;;;7.05;4.43;;;;;;;;;;5089498;27;95306;-73
2022/05/07 20:04:20;;;;;;;9.93;4.97;;;;;;;;;;5088283;27;96807;-73
2022/05/07 20:06:47;;;;;;;7.53;4.32;;;;;;;;;;5090574;27;97384;-73
2022/05/07 20:09:14;;;;;;;6.85;3.83;;;;;;;;;;5090945;27;95474;-73
2022/05/07 20:11:42;;;;;;;7.57;4.32;;;;;;;;;;5076498;27;96747;-73
2022/05/07 20:14:09;;;;;;;7.07;3.42;;;;;;;;;;5087726;27;96241;-73
2022/05/07 20:16:36;;;;;;;9.32;3.50;;;;;;;;;;5087598;27;95213;-73
2022/05/07 20:19:03;;;;;;;6.35;3.30;;;;;;;;;;5091763;27;96893;-73
2022/05/07 20:24:27;;;;;;;8.20;3.38;;;;;;;;;;5087039;27;96886;-73
2022/05/07 20:26:54;;;;;;;7.50;3.17;;;;;;;;;;5089004;27;97340;-74
2022/05/07 20:29:21;;;;;;;5.38;3.20;;;;;;;;;;5090431;27;95376;-72
2022/05/07 20:31:48;;;;;;;9.07;3.63;;;;;;;;;;5088724;27;96848;-71
2022/05/07 20:34:17;;;;;;;8.27;3.20;;;;;;;;;;5079599;27;96144;-73
2022/05/07 20:36:45;;;;;;;6.13;3.30;;;;;;;;;;5075776;27;95313;-73
2022/05/07 20:39:12;;;;;;;8.68;3.30;;;;;;;;;;5087436;27;96673;-73
2022/05/07 20:41:39;;;;;;;5.93;3.10;;;;;;;;;;5072317;27;97013;-72
2022/05/07 20:46:55;;;;;;;7.30;3.42;;;;;;;;;;5085882;27;97331;-73
2022/05/07 20:49:24;;;;;;;7.55;3.28;;;;;;;;;;5076171;27;95338;-73
2022/05/07 20:51:54;;;;;;;6.70;2.85;;;;;;;;;;5074195;27;96746;-73
2022/05/07 20:54:20;;;;;;;9.90;3.40;;;;;;;;;;5075621;27;97193;-73
2022/05/07 20:56:48;;;;;;;9.30;3.50;;;;;;;;;;5076295;27;95343;-73
2022/05/07 20:59:15;;;;;;;10.52;4.03;;;;;;;;;;5076750;27;96828;-72
2022/05/07 21:01:44;;;;;;;8.90;3.40;;;;;;;;;;5076037;27;97400;-74
2022/05/07 21:04:11;;;;;;;7.25;3.90;;;;;;;;;;5078568;27;95288;-73
2022/05/07 21:06:38;;;;;;;10.90;4.07;;;;;;;;;;5073073;27;97353;-74
2022/05/07 21:09:05;;;;;;;14.85;4.38;;;;;;;;;;5076123;27;95174;-74
2022/05/07 21:11:32;;;;;;;9.70;4.07;;;;;;;;;;5075100;27;97096;-74
2022/05/07 21:13:59;;;;;;;10.38;4.13;;;;;;;;;;5074502;27;97307;-74
2022/05/07 21:16:26;;;;;;;13.20;4.80;;;;;;;;;;5075605;27;95192;-73
2022/05/07 21:19:04;;;;;;;13.43;4.40;;;;;;;;;;5075752;27;97294;-73
2022/05/07 21:21:30;;;;;;;11.05;4.80;;;;;;;;;;5073395;27;97533;-72
2022/05/07 21:23:59;;;;;;;8.85;4.82;;;;;;;;;;5074770;27;95264;-73
2022/05/07 21:26:32;;;;;;;9.73;4.80;;;;;;;;;;5077935;27;97069;-73
2022/05/07 21:29:00;;;;;;;13.07;5.30;;;;;;;;;;5075337;27;95287;-73
2022/05/07 21:31:33;;;;;;;14.13;5.60;;;;;;;;;;5075354;27;96704;-72
2022/05/07 21:34:01;;;;;;;11.18;6.15;;;;;;;;;;5074148;27;97640;-73
2022/05/07 21:36:28;;;;;;;10.82;6.40;;;;;;;;;;5074615;27;95206;-74
2022/05/07 21:38:55;;;;;;;15.73;6.50;;;;;;;;;;5074263;27;96533;-73
2022/05/07 21:41:21;;;;;;;15.77;6.70;;;;;;;;;;5072512;27;97783;-73
2022/05/07 21:43:48;;;;;;;14.50;6.90;;;;;;;;;;5075187;27;95158;-74
2022/05/07 21:46:14;;;;;;;12.30;6.68;;;;;;;;;;5075383;27;96790;-73
2022/05/07 21:48:41;;;;;;;14.77;6.63;;;;;;;;;;5077666;27;95427;-73
2022/05/07 21:51:28;;;;;;;12.57;7.20;;;;;;;;;;5074396;27;96750;-74
2022/05/07 21:53:56;;;;;;;11.18;6.70;;;;;;;;;;5054691;27;97386;-76
2022/05/07 21:56:26;;;;;;;17.25;6.63;;;;;;;;;;5054084;27;95412;-73
2022/05/07 21:58:53;;;;;;;12.32;6.85;;;;;;;;;;5053940;27;96777;-75
2022/05/07 22:01:19;;;;;;;20.10;7.80;;;;;;;;;;5065362;27;97486;-73
2022/05/07 22:03:46;;;;;;;13.93;6.97;;;;;;;;;;5074646;27;95323;-72
2022/05/07 22:06:13;;;;;;;14.02;7.35;;;;;;;;;;5054722;27;97002;-73
2022/05/07 22:08:39;;;;;;;17.42;8.20;;;;;;;;;;5079684;27;96816;-75
2022/05/07 22:11:06;;;;;;;16.77;7.57;;;;;;;;;;5072941;27;96773;-73
2022/05/07 22:13:32;;;;;;;16.50;7.80;;;;;;;;;;5074593;27;97905;-73
2022/05/07 22:15:59;;;;;;;16.98;7.88;;;;;;;;;;5074900;27;95306;-74
2022/05/07 22:18:25;;;;;;;14.68;8.05;;;;;;;;;;5074615;27;97186;-72
2022/05/07 22:20:52;;;;;;;15.18;8.13;;;;;;;;;;5074245;27;97365;-73
2022/05/07 22:23:19;;;;;;;20.98;9.27;;;;;;;;;;5073877;27;95310;-73
2022/05/07 22:25:45;;;;;;;15.73;8.07;;;;;;;;;;5073564;27;96998;-73
2022/05/07 22:28:12;;;;;;;19.67;8.30;;;;;;;;;;5074043;27;97617;-73
2022/05/07 22:30:38;;;;;;;18.13;8.25;;;;;;;;;;5076746;27;95489;-73
2022/05/07 22:33:04;;;;;;;18.35;9.27;;;;;;;;;;5074297;27;97635;-72
2022/05/07 22:35:31;;;;;;;16.33;8.38;;;;;;;;;;5074162;27;95320;-72
2022/05/07 22:37:58;;;;;;;16.33;8.77;;;;;;;;;;5072810;27;96860;-73
2022/05/07 22:40:24;;;;;;;16.98;8.55;;;;;;;;;;5073575;27;97649;-73
2022/05/07 22:42:50;;;;;;;14.80;8.52;;;;;;;;;;5072619;27;96366;-73
2022/05/07 22:45:17;;;;;;;19.50;8.93;;;;;;;;;;5073235;27;96823;-73
2022/05/07 22:47:43;;;;;;;20.27;8.18;;;;;;;;;;5074205;27;97324;-72
2022/05/07 22:50:10;;;;;;;16.88;8.23;;;;;;;;;;5074370;27;95318;-73
2022/05/07 22:52:36;;;;;;;20.20;8.75;;;;;;;;;;5075571;27;97001;-73
2022/05/07 22:55:03;;;;;;;16.15;8.57;;;;;;;;;;5074465;27;95256;-73
2022/05/07 22:57:29;;;;;;;15.75;8.38;;;;;;;;;;5072771;27;96852;-73
2022/05/07 22:59:55;;;;;;;15.85;9.05;;;;;;;;;;5073452;27;97316;-73
2022/05/07 23:02:22;;;;;;;16.45;8.65;;;;;;;;;;5073176;27;95529;-73
2022/05/07 23:04:51;;;;;;;16.85;9.23;;;;;;;;;;5074009;27;96788;-73
2022/05/07 23:07:18;;;;;;;17.65;9.13;;;;;;;;;;5073938;27;97677;-73
2022/05/07 23:09:44;;;;;;;16.90;9.50;;;;;;;;;;5075358;27;95344;-73
2022/05/07 23:12:10;;;;;;;18.55;9.13;;;;;;;;;;5070913;27;96782;-73
2022/05/07 23:14:37;;;;;;;16.83;8.90;;;;;;;;;;5075916;27;97428;-73
2022/05/07 23:17:04;;;;;;;15.30;8.82;;;;;;;;;;5074302;27;96943;-73
2022/05/07 23:19:31;;;;;;;19.23;8.85;;;;;;;;;;5071911;27;97305;-73
2022/05/07 23:22:00;;;;;;;16.83;9.18;;;;;;;;;;5073736;27;96316;-72
2022/05/07 23:24:26;;;;;;;16.75;9.05;;;;;;;;;;5073662;27;96746;-73
2022/05/07 23:26:56;;;;;;;17.10;8.65;;;;;;;;;;5071428;27;97293;-73
2022/05/07 23:29:23;;;;;;;21.25;9.00;;;;;;;;;;5073453;27;95321;-72
2022/05/07 23:31:49;;;;;;;16.73;8.77;;;;;;;;;;5073172;27;96784;-73
2022/05/07 23:34:16;;;;;;;19.45;8.82;;;;;;;;;;5072765;27;97277;-72
2022/05/07 23:36:42;;;;;;;19.42;10.13;;;;;;;;;;5072954;27;95352;-73
2022/05/07 23:39:08;;;;;;;16.42;8.68;;;;;;;;;;5052481;27;97399;-73
2022/05/07 23:41:35;;;;;;;17.83;8.82;;;;;;;;;;5052376;27;95872;-73
2022/05/07 23:44:02;;;;;;;17.83;9.57;;;;;;;;;;5070208;27;96968;-73
2022/05/07 23:46:33;;;;;;;22.85;9.10;;;;;;;;;;5061537;27;100767;-73
2022/05/07 23:49:00;;;;;;;18.38;8.35;;;;;;;;;;5054726;27;95444;-73
2022/05/07 23:51:27;;;;;;;17.08;8.52;;;;;;;;;;5069537;27;98594;-72
2022/05/07 23:53:53;;;;;;;16.75;8.82;;;;;;;;;;5072580;27;97853;-73
2022/05/07 23:56:20;;;;;;;17.83;8.63;;;;;;;;;;5075545;27;95386;-73
2022/05/07 23:58:46;;;;;;;19.48;8.77;;;;;;;;;;5072495;27;97299;-74
